sensor_id;sensor_type;location;lat;lon;timestamp;P1;durP1;ratioP1;P2;durP2;ratioP2
23716;SDS011;22094;52.130;5.598;2023-11-21T00:02:14;57.70;;;24.92;;
23716;SDS011;22094;52.130;5.598;2023-11-21T00:04:40;61.08;;;26.10;;
23716;SDS011;22094;52.130;5.598;2023-11-21T00:07:05;81.53;;;26.83;;
23716;SDS011;22094;52.130;5.598;2023-11-21T00:09:31;86.65;;;28.73;;
23716;SDS011;22094;52.130;5.598;2023-11-21T00:11:57;63.72;;;24.95;;
23716;SDS011;22094;52.130;5.598;2023-11-21T00:14:24;75.10;;;27.50;;
23716;SDS011;22094;52.130;5.598;2023-11-21T00:16:50;64.22;;;24.05;;
23716;SDS011;22094;52.130;5.598;2023-11-21T00:19:16;62.75;;;24.35;;
23716;SDS011;22094;52.130;5.598;2023-11-21T00:21:41;61.20;;;25.55;;
23716;SDS011;22094;52.130;5.598;2023-11-21T00:24:09;61.90;;;26.58;;
23716;SDS011;22094;52.130;5.598;2023-11-21T00:26:35;61.50;;;25.65;;
23716;SDS011;22094;52.130;5.598;2023-11-21T00:29:02;65.03;;;25.95;;
23716;SDS011;22094;52.130;5.598;2023-11-21T00:31:28;51.88;;;24.15;;
23716;SDS011;22094;52.130;5.598;2023-11-21T00:33:55;92.35;;;28.05;;
23716;SDS011;22094;52.130;5.598;2023-11-21T00:36:21;64.63;;;26.85;;
23716;SDS011;22094;52.130;5.598;2023-11-21T00:38:47;71.63;;;27.23;;
23716;SDS011;22094;52.130;5.598;2023-11-21T00:41:13;67.72;;;27.70;;
23716;SDS011;22094;52.130;5.598;2023-11-21T00:43:39;60.10;;;25.63;;
23716;SDS011;22094;52.130;5.598;2023-11-21T00:46:05;68.75;;;26.83;;
23716;SDS011;22094;52.130;5.598;2023-11-21T00:48:32;97.32;;;28.90;;
23716;SDS011;22094;52.130;5.598;2023-11-21T00:50:58;73.00;;;26.38;;
23716;SDS011;22094;52.130;5.598;2023-11-21T00:53:24;64.30;;;24.95;;
23716;SDS011;22094;52.130;5.598;2023-11-21T00:55:49;54.13;;;24.55;;
23716;SDS011;22094;52.130;5.598;2023-11-21T00:58:17;70.35;;;26.30;;
23716;SDS011;22094;52.130;5.598;2023-11-21T01:00:42;57.80;;;24.63;;
23716;SDS011;22094;52.130;5.598;2023-11-21T01:03:08;44.00;;;23.75;;
23716;SDS011;22094;52.130;5.598;2023-11-21T01:05:34;51.95;;;24.85;;
23716;SDS011;22094;52.130;5.598;2023-11-21T01:07:59;54.15;;;24.73;;
23716;SDS011;22094;52.130;5.598;2023-11-21T01:10:25;93.95;;;28.98;;
23716;SDS011;22094;52.130;5.598;2023-11-21T01:12:51;120.18;;;31.08;;
23716;SDS011;22094;52.130;5.598;2023-11-21T01:15:16;67.10;;;27.27;;
23716;SDS011;22094;52.130;5.598;2023-11-21T01:17:42;83.43;;;27.98;;
23716;SDS011;22094;52.130;5.598;2023-11-21T01:20:08;100.15;;;31.02;;
23716;SDS011;22094;52.130;5.598;2023-11-21T01:22:37;91.90;;;31.17;;
23716;SDS011;22094;52.130;5.598;2023-11-21T01:25:04;122.97;;;33.10;;
23716;SDS011;22094;52.130;5.598;2023-11-21T01:27:32;80.85;;;30.63;;
23716;SDS011;22094;52.130;5.598;2023-11-21T01:30:02;87.55;;;29.85;;
23716;SDS011;22094;52.130;5.598;2023-11-21T01:32:28;78.57;;;29.77;;
23716;SDS011;22094;52.130;5.598;2023-11-21T01:34:54;82.78;;;28.35;;
23716;SDS011;22094;52.130;5.598;2023-11-21T01:37:20;92.78;;;29.48;;
23716;SDS011;22094;52.130;5.598;2023-11-21T01:39:46;83.47;;;29.60;;
23716;SDS011;22094;52.130;5.598;2023-11-21T01:42:12;63.50;;;27.90;;
23716;SDS011;22094;52.130;5.598;2023-11-21T01:44:38;77.90;;;29.67;;
23716;SDS011;22094;52.130;5.598;2023-11-21T01:47:05;72.00;;;27.10;;
23716;SDS011;22094;52.130;5.598;2023-11-21T01:49:34;72.03;;;26.45;;
23716;SDS011;22094;52.130;5.598;2023-11-21T01:52:01;60.35;;;25.45;;
23716;SDS011;22094;52.130;5.598;2023-11-21T01:54:27;68.95;;;27.00;;
23716;SDS011;22094;52.130;5.598;2023-11-21T01:57:00;126.20;;;33.47;;
23716;SDS011;22094;52.130;5.598;2023-11-21T01:59:33;98.88;;;30.70;;
23716;SDS011;22094;52.130;5.598;2023-11-21T02:02:01;69.00;;;28.08;;
23716;SDS011;22094;52.130;5.598;2023-11-21T02:04:29;70.75;;;27.63;;
23716;SDS011;22094;52.130;5.598;2023-11-21T02:06:56;112.47;;;32.70;;
23716;SDS011;22094;52.130;5.598;2023-11-21T02:09:26;101.93;;;30.60;;
23716;SDS011;22094;52.130;5.598;2023-11-21T02:11:52;67.45;;;27.58;;
23716;SDS011;22094;52.130;5.598;2023-11-21T02:14:19;69.00;;;28.75;;
23716;SDS011;22094;52.130;5.598;2023-11-21T02:16:47;66.90;;;28.25;;
23716;SDS011;22094;52.130;5.598;2023-11-21T02:19:14;86.40;;;32.10;;
23716;SDS011;22094;52.130;5.598;2023-11-21T02:21:45;83.88;;;29.75;;
23716;SDS011;22094;52.130;5.598;2023-11-21T02:24:13;77.70;;;30.65;;
23716;SDS011;22094;52.130;5.598;2023-11-21T02:26:39;61.90;;;28.65;;
23716;SDS011;22094;52.130;5.598;2023-11-21T02:29:04;94.40;;;32.72;;
23716;SDS011;22094;52.130;5.598;2023-11-21T02:31:30;96.22;;;32.10;;
23716;SDS011;22094;52.130;5.598;2023-11-21T02:33:57;85.60;;;30.17;;
23716;SDS011;22094;52.130;5.598;2023-11-21T02:36:23;84.72;;;31.52;;
23716;SDS011;22094;52.130;5.598;2023-11-21T02:38:49;88.75;;;32.25;;
23716;SDS011;22094;52.130;5.598;2023-11-21T02:41:15;89.15;;;31.98;;
23716;SDS011;22094;52.130;5.598;2023-11-21T02:43:40;69.22;;;29.63;;
23716;SDS011;22094;52.130;5.598;2023-11-21T02:46:06;76.32;;;30.90;;
23716;SDS011;22094;52.130;5.598;2023-11-21T02:48:33;100.20;;;34.03;;
23716;SDS011;22094;52.130;5.598;2023-11-21T02:50:59;72.47;;;30.77;;
23716;SDS011;22094;52.130;5.598;2023-11-21T02:53:24;73.07;;;29.48;;
23716;SDS011;22094;52.130;5.598;2023-11-21T02:55:50;55.13;;;28.00;;
23716;SDS011;22094;52.130;5.598;2023-11-21T02:58:16;88.28;;;31.92;;
23716;SDS011;22094;52.130;5.598;2023-11-21T03:00:42;74.75;;;30.45;;
23716;SDS011;22094;52.130;5.598;2023-11-21T03:03:08;89.18;;;31.25;;
23716;SDS011;22094;52.130;5.598;2023-11-21T03:05:33;78.75;;;30.48;;
23716;SDS011;22094;52.130;5.598;2023-11-21T03:08:00;80.80;;;30.95;;
23716;SDS011;22094;52.130;5.598;2023-11-21T03:10:26;88.13;;;30.75;;
23716;SDS011;22094;52.130;5.598;2023-11-21T03:12:52;85.03;;;30.50;;
23716;SDS011;22094;52.130;5.598;2023-11-21T03:15:18;90.55;;;30.05;;
23716;SDS011;22094;52.130;5.598;2023-11-21T03:17:43;57.47;;;26.83;;
23716;SDS011;22094;52.130;5.598;2023-11-21T03:20:09;68.53;;;28.75;;
23716;SDS011;22094;52.130;5.598;2023-11-21T03:22:36;70.30;;;27.45;;
23716;SDS011;22094;52.130;5.598;2023-11-21T03:25:03;62.20;;;26.33;;
23716;SDS011;22094;52.130;5.598;2023-11-21T03:27:30;59.65;;;26.38;;
23716;SDS011;22094;52.130;5.598;2023-11-21T03:29:55;66.45;;;27.27;;
23716;SDS011;22094;52.130;5.598;2023-11-21T03:32:21;58.50;;;26.75;;
23716;SDS011;22094;52.130;5.598;2023-11-21T03:34:56;72.30;;;26.17;;
23716;SDS011;22094;52.130;5.598;2023-11-21T03:37:23;77.88;;;28.08;;
23716;SDS011;22094;52.130;5.598;2023-11-21T03:39:49;61.20;;;26.05;;
23716;SDS011;22094;52.130;5.598;2023-11-21T03:42:15;74.53;;;28.35;;
23716;SDS011;22094;52.130;5.598;2023-11-21T03:44:41;73.22;;;26.77;;
23716;SDS011;22094;52.130;5.598;2023-11-21T03:47:07;82.82;;;29.33;;
23716;SDS011;22094;52.130;5.598;2023-11-21T03:49:32;57.55;;;25.27;;
23716;SDS011;22094;52.130;5.598;2023-11-21T03:51:58;57.10;;;24.98;;
23716;SDS011;22094;52.130;5.598;2023-11-21T03:54:24;52.65;;;25.50;;
23716;SDS011;22094;52.130;5.598;2023-11-21T03:56:49;75.95;;;26.58;;
23716;SDS011;22094;52.130;5.598;2023-11-21T03:59:15;60.47;;;25.15;;
23716;SDS011;22094;52.130;5.598;2023-11-21T04:01:40;55.60;;;24.92;;
23716;SDS011;22094;52.130;5.598;2023-11-21T04:04:06;48.30;;;23.48;;
23716;SDS011;22094;52.130;5.598;2023-11-21T04:06:31;55.40;;;25.40;;
23716;SDS011;22094;52.130;5.598;2023-11-21T04:08:58;70.03;;;27.25;;
23716;SDS011;22094;52.130;5.598;2023-11-21T04:11:23;58.00;;;25.67;;
23716;SDS011;22094;52.130;5.598;2023-11-21T04:13:49;58.65;;;24.85;;
23716;SDS011;22094;52.130;5.598;2023-11-21T04:16:15;54.58;;;25.65;;
23716;SDS011;22094;52.130;5.598;2023-11-21T04:18:40;64.55;;;25.83;;
23716;SDS011;22094;52.130;5.598;2023-11-21T04:21:06;84.80;;;27.55;;
23716;SDS011;22094;52.130;5.598;2023-11-21T04:23:32;58.05;;;25.27;;
23716;SDS011;22094;52.130;5.598;2023-11-21T04:25:59;56.53;;;24.70;;
23716;SDS011;22094;52.130;5.598;2023-11-21T04:28:24;47.08;;;22.50;;
23716;SDS011;22094;52.130;5.598;2023-11-21T04:30:50;64.53;;;25.33;;
23716;SDS011;22094;52.130;5.598;2023-11-21T04:33:16;58.13;;;24.63;;
23716;SDS011;22094;52.130;5.598;2023-11-21T04:35:42;60.75;;;24.02;;
23716;SDS011;22094;52.130;5.598;2023-11-21T04:38:07;52.17;;;23.05;;
23716;SDS011;22094;52.130;5.598;2023-11-21T04:40:33;62.20;;;24.95;;
23716;SDS011;22094;52.130;5.598;2023-11-21T04:42:58;56.17;;;24.17;;
23716;SDS011;22094;52.130;5.598;2023-11-21T04:45:24;55.60;;;24.58;;
23716;SDS011;22094;52.130;5.598;2023-11-21T04:47:50;71.72;;;25.15;;
23716;SDS011;22094;52.130;5.598;2023-11-21T04:50:16;70.90;;;26.30;;
23716;SDS011;22094;52.130;5.598;2023-11-21T04:52:42;54.55;;;24.02;;
23716;SDS011;22094;52.130;5.598;2023-11-21T04:55:08;61.85;;;26.42;;
23716;SDS011;22094;52.130;5.598;2023-11-21T04:57:35;79.97;;;26.73;;
23716;SDS011;22094;52.130;5.598;2023-11-21T05:00:01;71.90;;;27.25;;
23716;SDS011;22094;52.130;5.598;2023-11-21T05:05:23;74.85;;;27.45;;
23716;SDS011;22094;52.130;5.598;2023-11-21T05:07:49;50.60;;;23.48;;
23716;SDS011;22094;52.130;5.598;2023-11-21T05:10:14;63.78;;;25.42;;
23716;SDS011;22094;52.130;5.598;2023-11-21T05:12:40;57.75;;;24.25;;
23716;SDS011;22094;52.130;5.598;2023-11-21T05:15:07;50.33;;;24.10;;
23716;SDS011;22094;52.130;5.598;2023-11-21T05:17:39;76.82;;;27.88;;
23716;SDS011;22094;52.130;5.598;2023-11-21T05:20:07;48.72;;;23.45;;
23716;SDS011;22094;52.130;5.598;2023-11-21T05:22:35;80.57;;;26.67;;
23716;SDS011;22094;52.130;5.598;2023-11-21T05:25:01;69.93;;;25.38;;
23716;SDS011;22094;52.130;5.598;2023-11-21T05:27:28;77.55;;;27.25;;
23716;SDS011;22094;52.130;5.598;2023-11-21T05:29:55;75.80;;;26.88;;
23716;SDS011;22094;52.130;5.598;2023-11-21T05:32:20;62.88;;;25.65;;
23716;SDS011;22094;52.130;5.598;2023-11-21T05:34:46;62.88;;;25.83;;
23716;SDS011;22094;52.130;5.598;2023-11-21T05:37:11;60.58;;;25.10;;
23716;SDS011;22094;52.130;5.598;2023-11-21T05:39:37;86.70;;;27.05;;
23716;SDS011;22094;52.130;5.598;2023-11-21T05:42:02;57.45;;;24.63;;
23716;SDS011;22094;52.130;5.598;2023-11-21T05:44:29;77.00;;;26.98;;
23716;SDS011;22094;52.130;5.598;2023-11-21T05:46:54;71.78;;;25.98;;
23716;SDS011;22094;52.130;5.598;2023-11-21T05:49:20;93.55;;;28.60;;
23716;SDS011;22094;52.130;5.598;2023-11-21T05:51:46;57.97;;;26.17;;
23716;SDS011;22094;52.130;5.598;2023-11-21T05:54:12;94.40;;;29.83;;
23716;SDS011;22094;52.130;5.598;2023-11-21T05:56:38;75.80;;;26.85;;
23716;SDS011;22094;52.130;5.598;2023-11-21T05:59:03;87.28;;;27.85;;
23716;SDS011;22094;52.130;5.598;2023-11-21T06:01:29;74.53;;;27.65;;
23716;SDS011;22094;52.130;5.598;2023-11-21T06:03:54;84.10;;;28.65;;
23716;SDS011;22094;52.130;5.598;2023-11-21T06:06:21;68.40;;;27.42;;
23716;SDS011;22094;52.130;5.598;2023-11-21T06:08:48;66.80;;;27.08;;
23716;SDS011;22094;52.130;5.598;2023-11-21T06:11:14;66.72;;;27.45;;
23716;SDS011;22094;52.130;5.598;2023-11-21T06:13:41;88.20;;;28.42;;
23716;SDS011;22094;52.130;5.598;2023-11-21T06:16:07;100.05;;;30.05;;
23716;SDS011;22094;52.130;5.598;2023-11-21T06:18:32;98.78;;;30.38;;
23716;SDS011;22094;52.130;5.598;2023-11-21T06:20:58;103.47;;;31.85;;
23716;SDS011;22094;52.130;5.598;2023-11-21T06:23:25;89.97;;;28.52;;
23716;SDS011;22094;52.130;5.598;2023-11-21T06:25:51;82.97;;;29.73;;
23716;SDS011;22094;52.130;5.598;2023-11-21T06:28:17;82.00;;;29.48;;
23716;SDS011;22094;52.130;5.598;2023-11-21T06:30:43;97.80;;;31.00;;
23716;SDS011;22094;52.130;5.598;2023-11-21T06:33:10;62.42;;;27.27;;
23716;SDS011;22094;52.130;5.598;2023-11-21T06:35:36;79.95;;;28.85;;
23716;SDS011;22094;52.130;5.598;2023-11-21T06:38:01;105.00;;;31.75;;
23716;SDS011;22094;52.130;5.598;2023-11-21T06:40:27;93.68;;;30.90;;
23716;SDS011;22094;52.130;5.598;2023-11-21T06:42:53;84.28;;;28.85;;
23716;SDS011;22094;52.130;5.598;2023-11-21T06:45:19;85.13;;;30.05;;
23716;SDS011;22094;52.130;5.598;2023-11-21T06:47:45;82.15;;;30.30;;
23716;SDS011;22094;52.130;5.598;2023-11-21T06:50:11;98.60;;;32.03;;
23716;SDS011;22094;52.130;5.598;2023-11-21T06:52:36;66.93;;;29.30;;
23716;SDS011;22094;52.130;5.598;2023-11-21T06:55:02;82.55;;;29.98;;
23716;SDS011;22094;52.130;5.598;2023-11-21T06:57:28;69.63;;;28.85;;
23716;SDS011;22094;52.130;5.598;2023-11-21T06:59:53;87.47;;;29.95;;
23716;SDS011;22094;52.130;5.598;2023-11-21T07:02:20;81.55;;;28.80;;
23716;SDS011;22094;52.130;5.598;2023-11-21T07:04:46;66.65;;;26.13;;
23716;SDS011;22094;52.130;5.598;2023-11-21T07:07:11;70.97;;;26.92;;
23716;SDS011;22094;52.130;5.598;2023-11-21T07:09:37;60.75;;;27.83;;
23716;SDS011;22094;52.130;5.598;2023-11-21T07:12:03;74.40;;;28.98;;
23716;SDS011;22094;52.130;5.598;2023-11-21T07:14:32;63.80;;;27.23;;
23716;SDS011;22094;52.130;5.598;2023-11-21T07:17:01;71.95;;;27.45;;
23716;SDS011;22094;52.130;5.598;2023-11-21T07:19:27;94.43;;;30.50;;
23716;SDS011;22094;52.130;5.598;2023-11-21T07:21:54;65.00;;;28.60;;
23716;SDS011;22094;52.130;5.598;2023-11-21T07:24:20;88.20;;;31.95;;
23716;SDS011;22094;52.130;5.598;2023-11-21T07:26:46;96.47;;;32.47;;
23716;SDS011;22094;52.130;5.598;2023-11-21T07:29:13;75.00;;;29.23;;
23716;SDS011;22094;52.130;5.598;2023-11-21T07:31:38;95.05;;;32.60;;
23716;SDS011;22094;52.130;5.598;2023-11-21T07:34:04;81.20;;;29.63;;
23716;SDS011;22094;52.130;5.598;2023-11-21T07:36:30;78.68;;;29.15;;
23716;SDS011;22094;52.130;5.598;2023-11-21T07:38:56;99.35;;;31.45;;
23716;SDS011;22094;52.130;5.598;2023-11-21T07:41:22;74.13;;;28.45;;
23716;SDS011;22094;52.130;5.598;2023-11-21T07:43:47;83.18;;;29.70;;
23716;SDS011;22094;52.130;5.598;2023-11-21T07:46:13;67.65;;;28.27;;
23716;SDS011;22094;52.130;5.598;2023-11-21T07:48:39;59.65;;;26.05;;
23716;SDS011;22094;52.130;5.598;2023-11-21T07:51:07;56.80;;;24.75;;
23716;SDS011;22094;52.130;5.598;2023-11-21T07:53:33;72.90;;;27.25;;
23716;SDS011;22094;52.130;5.598;2023-11-21T07:56:03;58.88;;;25.40;;
23716;SDS011;22094;52.130;5.598;2023-11-21T07:58:34;73.82;;;26.92;;
23716;SDS011;22094;52.130;5.598;2023-11-21T08:01:01;67.10;;;26.02;;
23716;SDS011;22094;52.130;5.598;2023-11-21T08:03:27;62.03;;;25.67;;
23716;SDS011;22094;52.130;5.598;2023-11-21T08:05:55;54.67;;;24.90;;
23716;SDS011;22094;52.130;5.598;2023-11-21T08:08:21;70.55;;;27.30;;
23716;SDS011;22094;52.130;5.598;2023-11-21T08:10:47;72.43;;;27.10;;
23716;SDS011;22094;52.130;5.598;2023-11-21T08:13:13;61.60;;;25.63;;
23716;SDS011;22094;52.130;5.598;2023-11-21T08:15:40;53.72;;;25.38;;
23716;SDS011;22094;52.130;5.598;2023-11-21T08:18:10;75.00;;;27.00;;
23716;SDS011;22094;52.130;5.598;2023-11-21T08:20:35;56.17;;;23.65;;
23716;SDS011;22094;52.130;5.598;2023-11-21T08:23:03;110.88;;;31.92;;
23716;SDS011;22094;52.130;5.598;2023-11-21T08:25:30;61.13;;;25.27;;
23716;SDS011;22094;52.130;5.598;2023-11-21T08:27:56;59.03;;;24.95;;
23716;SDS011;22094;52.130;5.598;2023-11-21T08:30:22;78.03;;;29.40;;
23716;SDS011;22094;52.130;5.598;2023-11-21T08:32:49;53.72;;;24.33;;
23716;SDS011;22094;52.130;5.598;2023-11-21T08:35:17;68.43;;;26.58;;
23716;SDS011;22094;52.130;5.598;2023-11-21T08:37:42;71.75;;;27.67;;
23716;SDS011;22094;52.130;5.598;2023-11-21T08:40:08;63.00;;;25.85;;
23716;SDS011;22094;52.130;5.598;2023-11-21T08:42:34;94.85;;;29.15;;
23716;SDS011;22094;52.130;5.598;2023-11-21T08:45:00;65.85;;;25.35;;
23716;SDS011;22094;52.130;5.598;2023-11-21T08:47:26;55.88;;;25.13;;
23716;SDS011;22094;52.130;5.598;2023-11-21T08:49:52;89.80;;;28.63;;
23716;SDS011;22094;52.130;5.598;2023-11-21T08:52:18;95.97;;;28.73;;
23716;SDS011;22094;52.130;5.598;2023-11-21T08:54:47;73.93;;;28.08;;
23716;SDS011;22094;52.130;5.598;2023-11-21T08:57:21;87.07;;;29.73;;
23716;SDS011;22094;52.130;5.598;2023-11-21T08:59:47;72.00;;;28.58;;
23716;SDS011;22094;52.130;5.598;2023-11-21T09:02:13;69.10;;;27.58;;
23716;SDS011;22094;52.130;5.598;2023-11-21T09:04:38;106.28;;;30.20;;
23716;SDS011;22094;52.130;5.598;2023-11-21T09:07:04;91.03;;;28.92;;
23716;SDS011;22094;52.130;5.598;2023-11-21T09:09:30;78.03;;;27.17;;
23716;SDS011;22094;52.130;5.598;2023-11-21T09:11:56;60.15;;;26.55;;
23716;SDS011;22094;52.130;5.598;2023-11-21T09:14:22;70.22;;;27.80;;
23716;SDS011;22094;52.130;5.598;2023-11-21T09:16:47;69.22;;;27.48;;
23716;SDS011;22094;52.130;5.598;2023-11-21T09:19:13;87.13;;;29.20;;
23716;SDS011;22094;52.130;5.598;2023-11-21T09:21:40;92.78;;;31.10;;
23716;SDS011;22094;52.130;5.598;2023-11-21T09:24:06;71.55;;;28.38;;
23716;SDS011;22094;52.130;5.598;2023-11-21T09:26:34;69.78;;;28.02;;
23716;SDS011;22094;52.130;5.598;2023-11-21T09:28:59;66.35;;;28.48;;
23716;SDS011;22094;52.130;5.598;2023-11-21T09:31:27;68.00;;;28.17;;
23716;SDS011;22094;52.130;5.598;2023-11-21T09:33:52;70.25;;;28.35;;
23716;SDS011;22094;52.130;5.598;2023-11-21T09:36:18;71.50;;;27.20;;
23716;SDS011;22094;52.130;5.598;2023-11-21T09:38:44;55.58;;;25.65;;
23716;SDS011;22094;52.130;5.598;2023-11-21T09:41:21;52.38;;;24.85;;
23716;SDS011;22094;52.130;5.598;2023-11-21T09:43:54;56.08;;;25.52;;
23716;SDS011;22094;52.130;5.598;2023-11-21T09:46:24;50.10;;;23.60;;
23716;SDS011;22094;52.130;5.598;2023-11-21T09:48:53;46.90;;;23.48;;
23716;SDS011;22094;52.130;5.598;2023-11-21T09:51:19;47.58;;;23.58;;
23716;SDS011;22094;52.130;5.598;2023-11-21T09:53:48;44.50;;;21.85;;
23716;SDS011;22094;52.130;5.598;2023-11-21T09:56:17;42.92;;;22.13;;
23716;SDS011;22094;52.130;5.598;2023-11-21T09:58:49;47.17;;;22.88;;
23716;SDS011;22094;52.130;5.598;2023-11-21T10:01:16;40.22;;;21.65;;
23716;SDS011;22094;52.130;5.598;2023-11-21T10:03:43;43.38;;;21.45;;
23716;SDS011;22094;52.130;5.598;2023-11-21T10:06:09;37.70;;;19.88;;
23716;SDS011;22094;52.130;5.598;2023-11-21T10:08:39;41.75;;;21.92;;
23716;SDS011;22094;52.130;5.598;2023-11-21T10:11:05;34.22;;;20.10;;
23716;SDS011;22094;52.130;5.598;2023-11-21T10:13:33;41.05;;;21.60;;
23716;SDS011;22094;52.130;5.598;2023-11-21T10:16:00;41.55;;;21.80;;
23716;SDS011;22094;52.130;5.598;2023-11-21T10:18:30;40.97;;;21.02;;
23716;SDS011;22094;52.130;5.598;2023-11-21T10:20:59;39.13;;;21.13;;
23716;SDS011;22094;52.130;5.598;2023-11-21T10:23:25;42.97;;;22.48;;
23716;SDS011;22094;52.130;5.598;2023-11-21T10:25:51;41.60;;;21.70;;
23716;SDS011;22094;52.130;5.598;2023-11-21T10:28:18;39.67;;;21.25;;
23716;SDS011;22094;52.130;5.598;2023-11-21T10:30:45;41.30;;;20.65;;
23716;SDS011;22094;52.130;5.598;2023-11-21T10:33:11;73.13;;;39.38;;
23716;SDS011;22094;52.130;5.598;2023-11-21T10:35:47;37.30;;;20.05;;
23716;SDS011;22094;52.130;5.598;2023-11-21T10:38:16;36.20;;;19.30;;
23716;SDS011;22094;52.130;5.598;2023-11-21T10:40:43;37.55;;;19.98;;
23716;SDS011;22094;52.130;5.598;2023-11-21T10:43:09;34.08;;;20.23;;
23716;SDS011;22094;52.130;5.598;2023-11-21T10:45:36;31.48;;;18.67;;
23716;SDS011;22094;52.130;5.598;2023-11-21T10:48:06;33.47;;;18.15;;
23716;SDS011;22094;52.130;5.598;2023-11-21T10:50:35;29.13;;;16.77;;
23716;SDS011;22094;52.130;5.598;2023-11-21T10:53:02;30.25;;;16.55;;
23716;SDS011;22094;52.130;5.598;2023-11-21T10:55:29;26.10;;;16.23;;
23716;SDS011;22094;52.130;5.598;2023-11-21T10:57:58;28.40;;;15.23;;
23716;SDS011;22094;52.130;5.598;2023-11-21T11:00:25;24.73;;;13.80;;
23716;SDS011;22094;52.130;5.598;2023-11-21T11:02:52;25.95;;;15.20;;
23716;SDS011;22094;52.130;5.598;2023-11-21T11:05:24;26.25;;;15.05;;
23716;SDS011;22094;52.130;5.598;2023-11-21T11:08:03;26.40;;;15.27;;
23716;SDS011;22094;52.130;5.598;2023-11-21T11:10:30;26.92;;;14.82;;
23716;SDS011;22094;52.130;5.598;2023-11-21T11:12:57;24.52;;;15.25;;
23716;SDS011;22094;52.130;5.598;2023-11-21T11:15:26;26.85;;;14.52;;
23716;SDS011;22094;52.130;5.598;2023-11-21T11:17:52;31.95;;;14.73;;
23716;SDS011;22094;52.130;5.598;2023-11-21T11:20:22;25.77;;;14.75;;
23716;SDS011;22094;52.130;5.598;2023-11-21T11:28:04;23.60;;;13.68;;
23716;SDS011;22094;52.130;5.598;2023-11-21T11:30:41;22.58;;;12.70;;
23716;SDS011;22094;52.130;5.598;2023-11-21T11:33:39;22.70;;;12.93;;
23716;SDS011;22094;52.130;5.598;2023-11-21T11:38:44;21.42;;;13.00;;
23716;SDS011;22094;52.130;5.598;2023-11-21T11:41:11;26.33;;;14.68;;
23716;SDS011;22094;52.130;5.598;2023-11-21T11:43:37;21.92;;;13.70;;
23716;SDS011;22094;52.130;5.598;2023-11-21T11:46:10;25.77;;;14.60;;
23716;SDS011;22094;52.130;5.598;2023-11-21T11:48:43;27.08;;;14.40;;
23716;SDS011;22094;52.130;5.598;2023-11-21T11:51:15;21.20;;;13.43;;
23716;SDS011;22094;52.130;5.598;2023-11-21T11:53:46;27.30;;;14.88;;
23716;SDS011;22094;52.130;5.598;2023-11-21T11:56:32;22.52;;;13.98;;
23716;SDS011;22094;52.130;5.598;2023-11-21T11:59:03;23.15;;;13.77;;
23716;SDS011;22094;52.130;5.598;2023-11-21T12:01:32;20.48;;;13.27;;
23716;SDS011;22094;52.130;5.598;2023-11-21T12:06:40;25.27;;;15.40;;
23716;SDS011;22094;52.130;5.598;2023-11-21T12:09:17;24.75;;;15.43;;
23716;SDS011;22094;52.130;5.598;2023-11-21T12:11:44;29.10;;;15.52;;
23716;SDS011;22094;52.130;5.598;2023-11-21T12:14:11;26.48;;;15.20;;
23716;SDS011;22094;52.130;5.598;2023-11-21T12:16:38;24.27;;;14.88;;
23716;SDS011;22094;52.130;5.598;2023-11-21T12:19:04;22.73;;;14.65;;
23716;SDS011;22094;52.130;5.598;2023-11-21T12:21:30;21.98;;;14.00;;
23716;SDS011;22094;52.130;5.598;2023-11-21T12:23:57;22.55;;;14.05;;
23716;SDS011;22094;52.130;5.598;2023-11-21T12:26:23;25.67;;;15.35;;
23716;SDS011;22094;52.130;5.598;2023-11-21T12:28:53;23.58;;;14.32;;
23716;SDS011;22094;52.130;5.598;2023-11-21T12:31:24;25.13;;;16.23;;
23716;SDS011;22094;52.130;5.598;2023-11-21T12:33:50;25.85;;;15.77;;
23716;SDS011;22094;52.130;5.598;2023-11-21T12:36:16;22.80;;;15.30;;
23716;SDS011;22094;52.130;5.598;2023-11-21T12:38:42;24.73;;;15.20;;
23716;SDS011;22094;52.130;5.598;2023-11-21T12:41:08;23.25;;;14.77;;
23716;SDS011;22094;52.130;5.598;2023-11-21T12:43:35;22.58;;;15.82;;
23716;SDS011;22094;52.130;5.598;2023-11-21T12:46:07;26.35;;;16.45;;
23716;SDS011;22094;52.130;5.598;2023-11-21T12:48:38;25.88;;;16.10;;
23716;SDS011;22094;52.130;5.598;2023-11-21T12:51:07;24.00;;;15.65;;
23716;SDS011;22094;52.130;5.598;2023-11-21T12:53:34;25.48;;;15.57;;
23716;SDS011;22094;52.130;5.598;2023-11-21T12:56:01;25.27;;;16.02;;
23716;SDS011;22094;52.130;5.598;2023-11-21T12:58:31;24.90;;;16.52;;
23716;SDS011;22094;52.130;5.598;2023-11-21T13:00:58;22.55;;;14.52;;
23716;SDS011;22094;52.130;5.598;2023-11-21T13:03:24;25.35;;;16.35;;
23716;SDS011;22094;52.130;5.598;2023-11-21T13:05:51;24.55;;;15.73;;
23716;SDS011;22094;52.130;5.598;2023-11-21T13:08:22;23.08;;;16.00;;
23716;SDS011;22094;52.130;5.598;2023-11-21T13:10:50;24.27;;;15.70;;
23716;SDS011;22094;52.130;5.598;2023-11-21T13:13:21;26.75;;;16.77;;
23716;SDS011;22094;52.130;5.598;2023-11-21T13:15:51;24.40;;;15.10;;
23716;SDS011;22094;52.130;5.598;2023-11-21T13:18:19;23.67;;;15.02;;
23716;SDS011;22094;52.130;5.598;2023-11-21T13:20:46;22.60;;;14.57;;
23716;SDS011;22094;52.130;5.598;2023-11-21T13:23:12;23.70;;;14.60;;
23716;SDS011;22094;52.130;5.598;2023-11-21T13:25:40;22.35;;;14.02;;
23716;SDS011;22094;52.130;5.598;2023-11-21T13:28:06;21.20;;;12.75;;
23716;SDS011;22094;52.130;5.598;2023-11-21T13:30:33;14.75;;;8.50;;
23716;SDS011;22094;52.130;5.598;2023-11-21T13:32:59;12.77;;;8.15;;
23716;SDS011;22094;52.130;5.598;2023-11-21T13:35:31;11.40;;;7.45;;
23716;SDS011;22094;52.130;5.598;2023-11-21T13:38:12;12.13;;;7.38;;
23716;SDS011;22094;52.130;5.598;2023-11-21T13:40:41;11.32;;;6.63;;
23716;SDS011;22094;52.130;5.598;2023-11-21T13:43:12;12.55;;;7.60;;
23716;SDS011;22094;52.130;5.598;2023-11-21T13:45:39;11.80;;;7.03;;
23716;SDS011;22094;52.130;5.598;2023-11-21T13:48:05;12.77;;;7.32;;
23716;SDS011;22094;52.130;5.598;2023-11-21T13:50:44;12.55;;;7.25;;
23716;SDS011;22094;52.130;5.598;2023-11-21T13:53:38;14.07;;;7.93;;
23716;SDS011;22094;52.130;5.598;2023-11-21T13:56:06;12.73;;;7.90;;
23716;SDS011;22094;52.130;5.598;2023-11-21T13:58:32;14.63;;;8.80;;
23716;SDS011;22094;52.130;5.598;2023-11-21T14:01:12;14.90;;;9.10;;
23716;SDS011;22094;52.130;5.598;2023-11-21T14:04:01;15.57;;;9.85;;
23716;SDS011;22094;52.130;5.598;2023-11-21T14:06:36;16.38;;;10.00;;
23716;SDS011;22094;52.130;5.598;2023-11-21T14:09:12;19.77;;;11.07;;
23716;SDS011;22094;52.130;5.598;2023-11-21T14:11:47;21.63;;;11.25;;
23716;SDS011;22094;52.130;5.598;2023-11-21T14:14:21;23.27;;;13.50;;
23716;SDS011;22094;52.130;5.598;2023-11-21T14:16:47;25.08;;;14.15;;
23716;SDS011;22094;52.130;5.598;2023-11-21T14:19:13;25.42;;;14.55;;
23716;SDS011;22094;52.130;5.598;2023-11-21T14:21:41;25.00;;;14.35;;
23716;SDS011;22094;52.130;5.598;2023-11-21T14:24:10;25.85;;;14.57;;
23716;SDS011;22094;52.130;5.598;2023-11-21T14:26:38;29.55;;;15.15;;
23716;SDS011;22094;52.130;5.598;2023-11-21T14:29:05;25.92;;;15.30;;
23716;SDS011;22094;52.130;5.598;2023-11-21T14:31:31;27.92;;;15.48;;
23716;SDS011;22094;52.130;5.598;2023-11-21T14:33:57;27.85;;;15.65;;
23716;SDS011;22094;52.130;5.598;2023-11-21T14:36:22;26.83;;;14.73;;